Time;durP1;ratioP1;P1;durP2;ratioP2;P2;SDS_P1;SDS_P2;PMS_P1;PMS_P2;Temp;Humidity;BMP_temperature;BMP_pressure;BME280_temperature;BME280_humidity;BME280_pressure;Samples;Min_cycle;Max_cycle;Signal;HPM_P1;HPM_P2
2022/03/25 00:00:10;;;;;;;38.67;27.42;;;;;;;4.32;80.85;102037.09;683581;28;1708;-76
2022/03/25 00:00:34;;;;;;;37.88;26.60;;;;;;;4.24;82.89;102044.50;686407;28;1258;-75
2022/03/25 00:00:54;;;;;;;36.92;27.15;;;;;;;4.18;81.13;102045.94;684832;28;4337;-75
2022/03/25 00:01:15;;;;;;;39.00;27.73;;;;;;;4.22;81.03;102047.84;684286;28;1436;-77
2022/03/25 00:01:36;;;;;;;37.55;26.73;;;;;;;4.31;79.98;102044.78;685410;28;1291;-75
2022/03/25 00:01:58;;;;;;;35.80;26.50;;;;;;;4.29;81.36;102038.66;685230;28;1547;-76
2022/03/25 00:02:18;;;;;;;37.17;27.00;;;;;;;4.23;82.05;102041.84;686133;28;1588;-75
2022/03/25 00:02:41;;;;;;;37.22;27.40;;;;;;;4.16;81.95;102047.59;684383;28;1434;-76
2022/03/25 00:03:02;;;;;;;36.85;27.45;;;;;;;4.08;81.01;102036.88;685578;28;1809;-76
2022/03/25 00:03:22;;;;;;;36.17;27.08;;;;;;;4.09;80.24;102062.84;686415;28;1532;-76
2022/03/25 00:03:43;;;;;;;37.40;27.00;;;;;;;4.08;80.91;102045.56;685890;28;1327;-76
2022/03/25 00:04:04;;;;;;;38.07;26.93;;;;;;;4.07;82.46;102043.78;687782;28;4326;-76
2022/03/25 00:04:24;;;;;;;39.50;27.50;;;;;;;4.05;82.43;102045.41;685247;28;2609;-76
2022/03/25 00:04:45;;;;;;;38.17;27.08;;;;;;;4.01;82.82;102048.66;685504;28;1450;-75
2022/03/25 00:05:06;;;;;;;39.27;27.40;;;;;;;4.01;81.01;102040.91;687780;28;1501;-75
2022/03/25 00:05:26;;;;;;;41.43;27.47;;;;;;;4.02;82.17;102040.09;684530;28;1539;-76
2022/03/25 00:05:46;;;;;;;44.83;28.40;;;;;;;4.02;82.64;102040.09;685411;28;1222;-76
2022/03/25 00:06:08;;;;;;;41.93;28.80;;;;;;;3.98;83.92;102050.25;688482;28;1617;-75
2022/03/25 00:06:31;;;;;;;43.66;29.50;;;;;;;3.91;83.43;102046.50;684224;28;1346;-75
2022/03/25 00:06:54;;;;;;;44.15;30.13;;;;;;;3.88;83.06;102046.38;689934;28;4286;-76
2022/03/25 00:07:17;;;;;;;45.67;30.02;;;;;;;3.82;83.20;102040.91;681458;28;1535;-75
2022/03/25 00:07:41;;;;;;;46.47;30.27;;;;;;;3.80;83.33;102048.59;679533;29;1838;-75
2022/03/25 00:08:02;;;;;;;50.30;31.23;;;;;;;3.75;83.85;102045.81;684342;28;1682;-75
2022/03/25 00:08:23;;;;;;;49.40;31.10;;;;;;;3.69;84.23;102042.06;679860;28;2467;-75
2022/03/25 00:08:46;;;;;;;47.17;30.57;;;;;;;3.67;84.05;102044.59;680424;28;2549;-76
2022/03/25 00:09:07;;;;;;;44.05;29.25;;;;;;;3.66;84.14;102066.06;685890;28;1915;-76
2022/03/25 00:09:27;;;;;;;44.60;29.93;;;;;;;3.63;85.40;102049.53;686188;28;1474;-76
2022/03/25 00:09:48;;;;;;;45.73;30.47;;;;;;;3.58;85.63;102042.44;682970;28;4314;-75
2022/03/25 00:10:09;;;;;;;49.13;31.33;;;;;;;3.60;84.75;102044.22;682701;28;1684;-75
2022/03/25 00:10:29;;;;;;;64.63;36.83;;;;;;;3.60;84.27;102049.38;677043;29;1400;-76
2022/03/25 00:10:50;;;;;;;81.23;41.47;;;;;;;3.56;85.00;102048.38;681795;28;1470;-76
2022/03/25 00:11:11;;;;;;;81.70;43.22;;;;;;;3.51;85.53;102044.69;687952;28;1421;-75
2022/03/25 00:11:31;;;;;;;82.03;43.10;;;;;;;3.52;84.15;102042.16;687113;28;1211;-75
2022/03/25 00:11:55;;;;;;;82.15;43.00;;;;;;;3.50;85.48;102053.25;688091;28;2048;-76
2022/03/25 00:12:15;;;;;;;94.18;47.10;;;;;;;3.48;85.73;102048.00;687755;28;1640;-76
2022/03/25 00:12:37;;;;;;;90.70;47.40;;;;;;;3.50;85.26;102042.91;687885;28;1468;-76
2022/03/25 00:12:57;;;;;;;82.65;43.55;;;;;;;3.56;83.58;102048.38;686149;28;4290;-76
2022/03/25 00:13:18;;;;;;;77.10;41.15;;;;;;;3.66;82.77;102044.50;686195;28;1636;-76
2022/03/25 00:13:38;;;;;;;74.67;39.70;;;;;;;3.84;82.54;102049.63;687466;28;1451;-75
2022/03/25 00:13:58;;;;;;;74.07;39.38;;;;;;;3.92;81.89;102048.28;684875;28;1507;-76
2022/03/25 00:14:19;;;;;;;76.90;40.17;;;;;;;3.96;82.31;102047.59;683547;28;1515;-75
2022/03/25 00:14:40;;;;;;;75.38;40.35;;;;;;;3.92;81.49;102041.38;687035;28;1951;-75
2022/03/25 00:15:00;;;;;;;75.50;39.93;;;;;;;3.91;81.08;102046.50;684153;28;1219;-75
2022/03/25 00:15:22;;;;;;;78.07;40.22;;;;;;;3.94;81.81;102048.34;686618;28;1278;-76
2022/03/25 00:15:42;;;;;;;74.07;38.92;;;;;;;3.93;81.99;102052.63;688136;28;1346;-75
2022/03/25 00:16:04;;;;;;;62.50;36.83;;;;;;;3.85;82.79;102036.75;687793;28;4274;-75
2022/03/25 00:16:25;;;;;;;66.28;37.90;;;;;;;3.81;83.72;102041.72;685240;28;1464;-76
2022/03/25 00:16:46;;;;;;;64.43;36.97;;;;;;;3.80;83.32;102046.00;682066;28;1942;-75
2022/03/25 00:17:07;;;;;;;65.32;36.67;;;;;;;3.83;82.86;102040.09;683313;28;1702;-75
2022/03/25 00:17:28;;;;;;;59.88;35.10;;;;;;;3.82;82.96;102064.19;683140;28;1515;-76
2022/03/25 00:17:48;;;;;;;52.42;32.28;;;;;;;3.77;83.29;102043.28;686217;28;1482;-75
2022/03/25 00:18:09;;;;;;;52.75;32.40;;;;;;;3.73;84.52;102050.00;686539;28;1339;-76
2022/03/25 00:18:29;;;;;;;57.53;34.27;;;;;;;3.76;83.42;102041.50;685307;28;1161;-76
2022/03/25 00:18:50;;;;;;;55.17;34.03;;;;;;;3.77;82.39;102043.28;687431;28;4298;-76
2022/03/25 00:19:10;;;;;;;53.97;32.63;;;;;;;3.78;83.32;102051.94;683029;28;1248;-76
2022/03/25 00:19:31;;;;;;;55.30;33.85;;;;;;;3.78;83.34;102051.94;682131;28;1545;-76
2022/03/25 00:19:51;;;;;;;49.35;32.13;;;;;;;3.71;83.63;102049.06;681976;28;1911;-76
2022/03/25 00:20:12;;;;;;;51.47;32.00;;;;;;;3.68;84.02;102038.59;684531;28;1278;-76
2022/03/25 00:20:33;;;;;;;50.63;31.52;;;;;;;3.70;84.27;102052.47;685075;28;1375;-76
2022/03/25 00:20:57;;;;;;;50.40;31.15;;;;;;;3.69;84.12;102044.66;679473;28;1550;-76
2022/03/25 00:21:17;;;;;;;47.80;30.75;;;;;;;3.67;84.11;102064.38;679526;28;1376;-76
2022/03/25 00:21:45;;;;;;;46.67;30.03;;;;;;;3.65;83.94;102053.06;682723;28;1632;-76
2022/03/25 00:22:05;;;;;;;46.28;30.10;;;;;;;3.59;84.42;102064.03;686884;28;4801;-76
2022/03/25 00:22:26;;;;;;;49.95;31.42;;;;;;;3.54;84.47;102071.56;687210;28;1387;-76
2022/03/25 00:22:46;;;;;;;51.27;31.83;;;;;;;3.57;85.31;102050.13;688279;28;1567;-76
2022/03/25 00:23:10;;;;;;;50.97;31.48;;;;;;;3.56;84.96;102044.09;684736;28;1228;-76
2022/03/25 00:23:30;;;;;;;48.92;32.30;;;;;;;3.58;84.48;102044.16;686964;28;1267;-76
2022/03/25 00:23:54;;;;;;;50.97;32.20;;;;;;;3.66;84.23;102071.25;686127;28;4475;-76
2022/03/25 00:24:14;;;;;;;48.93;31.40;;;;;;;3.73;84.18;102042.25;684518;28;1518;-76
2022/03/25 00:24:35;;;;;;;47.33;30.52;;;;;;;3.80;83.09;102065.84;685331;28;1314;-76
2022/03/25 00:24:58;;;;;;;46.70;30.92;;;;;;;3.79;84.00;102045.94;681536;28;4365;-76
2022/03/25 00:25:23;;;;;;;50.53;31.45;;;;;;;3.69;84.68;102055.88;680656;28;1272;-76
2022/03/25 00:25:44;;;;;;;46.95;31.13;;;;;;;3.64;86.02;102066.81;680285;28;1404;-76
2022/03/25 00:26:07;;;;;;;48.35;31.73;;;;;;;3.59;86.47;102058.84;676693;28;1362;-76
2022/03/25 00:26:31;;;;;;;50.30;31.63;;;;;;;3.56;86.13;102053.56;679161;29;1136;-76
2022/03/25 00:26:52;;;;;;;47.10;30.70;;;;;;;3.61;85.94;102064.97;680810;28;1634;-76
2022/03/25 00:27:12;;;;;;;49.03;31.27;;;;;;;3.66;84.87;102050.56;679934;28;1205;-76
2022/03/25 00:27:33;;;;;;;46.10;30.88;;;;;;;3.70;84.46;102080.06;682270;28;1392;-76
2022/03/25 00:27:57;;;;;;;43.92;29.67;;;;;;;3.79;84.92;102051.13;679568;28;4347;-76
2022/03/25 00:28:23;;;;;;;49.97;31.77;;;;;;;3.69;85.37;102045.50;681576;28;1491;-76
2022/03/25 00:28:44;;;;;;;49.50;32.25;;;;;;;3.63;85.31;102039.19;682282;28;1384;-76
2022/03/25 00:29:04;;;;;;;58.40;35.60;;;;;;;3.60;85.25;102044.22;682431;28;1466;-76
2022/03/25 00:29:32;;;;;;;57.10;34.75;;;;;;;3.54;85.55;102047.41;681784;28;1128;-76
2022/03/25 00:29:55;;;;;;;58.78;35.03;;;;;;;3.49;86.35;102044.63;684706;28;1863;-76
2022/03/25 00:30:20;;;;;;;53.05;33.20;;;;;;;3.47;86.54;102079.84;685024;28;1529;-76
2022/03/25 00:30:46;;;;;;;49.78;32.03;;;;;;;3.45;85.99;102049.56;684384;28;1466;-76
2022/03/25 00:31:13;;;;;;;45.58;30.38;;;;;;;3.43;86.53;102061.53;681907;28;6252;-76
2022/03/25 00:31:34;;;;;;;47.38;30.52;;;;;;;3.37;86.81;102047.50;685982;28;973;-76
2022/03/25 00:31:54;;;;;;;45.90;30.85;;;;;;;3.38;87.02;102048.41;689269;28;1396;-76
2022/03/25 00:32:16;;;;;;;47.53;31.63;;;;;;;3.43;85.66;102064.13;685222;28;1245;-76
2022/03/25 00:32:37;;;;;;;48.92;31.73;;;;;;;3.56;84.56;102045.78;687292;28;1543;-76
2022/03/25 00:33:04;;;;;;;50.30;32.42;;;;;;;3.73;82.87;102043.97;685938;28;1648;-76
2022/03/25 00:33:25;;;;;;;50.78;32.33;;;;;;;3.75;84.10;102058.75;684299;28;1430;-76
2022/03/25 00:33:49;;;;;;;51.17;32.35;;;;;;;3.68;86.29;102059.28;687430;28;4330;-76
2022/03/25 00:34:09;;;;;;;51.95;32.45;;;;;;;3.62;84.59;102043.47;685943;28;1441;-76
2022/03/25 00:34:31;;;;;;;53.08;32.30;;;;;;;3.65;83.65;102066.00;679973;28;1388;-76
2022/03/25 00:35:00;;;;;;;51.60;31.27;;;;;;;3.85;81.94;102052.28;682804;28;1646;-76
2022/03/25 00:35:21;;;;;;;50.15;31.50;;;;;;;3.84;83.04;102075.50;681290;28;1742;-76
2022/03/25 00:35:42;;;;;;;47.25;30.40;;;;;;;3.74;84.34;102066.44;680646;28;1709;-76
2022/03/25 00:36:07;;;;;;;46.17;30.42;;;;;;;3.67;83.96;102042.00;681360;28;1499;-77
2022/03/25 00:36:28;;;;;;;48.65;30.83;;;;;;;3.66;83.37;102073.84;682407;28;1752;-76
2022/03/25 00:36:48;;;;;;;48.53;30.50;;;;;;;3.69;84.27;102053.28;681410;28;4290;-76
2022/03/25 00:37:10;;;;;;;45.58;29.40;;;;;;;3.69;84.85;102065.34;679944;28;1592;-76
2022/03/25 00:37:31;;;;;;;45.60;29.73;;;;;;;3.62;85.83;102053.81;681365;28;1192;-76
2022/03/25 00:37:52;;;;;;;46.13;30.52;;;;;;;3.54;85.69;102050.00;682109;28;1405;-76
2022/03/25 00:38:16;;;;;;;43.28;28.92;;;;;;;3.45;86.18;102055.63;683054;28;1138;-76
2022/03/25 00:38:39;;;;;;;41.85;28.60;;;;;;;3.41;86.52;102057.19;682402;28;1488;-76
2022/03/25 00:39:00;;;;;;;40.10;28.60;;;;;;;3.38;86.87;102054.44;685899;28;1547;-76
2022/03/25 00:39:21;;;;;;;41.22;28.65;;;;;;;3.34;86.42;102052.53;686874;28;1481;-76
2022/03/25 00:39:41;;;;;;;43.90;29.70;;;;;;;3.35;86.85;102063.75;684908;28;1834;-76
2022/03/25 00:40:03;;;;;;;41.50;29.52;;;;;;;3.30;87.52;102042.00;684968;28;4338;-76
2022/03/25 00:40:27;;;;;;;41.50;28.63;;;;;;;3.32;86.46;102073.94;679088;28;1260;-77
2022/03/25 00:40:50;;;;;;;41.45;28.30;;;;;;;3.44;84.77;102040.06;685519;28;1264;-76
2022/03/25 00:41:12;;;;;;;41.13;28.27;;;;;;;3.48;86.08;102044.56;682201;28;1517;-76
2022/03/25 00:41:36;;;;;;;41.30;28.40;;;;;;;3.45;87.42;102063.38;683839;28;1526;-76
2022/03/25 00:42:03;;;;;;;42.78;28.80;;;;;;;3.37;87.05;102042.34;680727;28;1386;-76
2022/03/25 00:42:30;;;;;;;41.85;28.73;;;;;;;3.41;85.61;102070.09;682405;28;1563;-76
2022/03/25 00:42:51;;;;;;;40.40;28.00;;;;;;;3.55;84.33;102046.59;682820;28;4357;-76
2022/03/25 00:43:16;;;;;;;38.42;27.30;;;;;;;3.67;83.67;102042.00;684567;28;2211;-76
2022/03/25 00:43:36;;;;;;;38.47;27.65;;;;;;;3.64;86.03;102084.91;683498;28;1601;-76
2022/03/25 00:43:57;;;;;;;41.25;28.77;;;;;;;3.58;86.17;102072.59;684102;28;1438;-77
2022/03/25 00:44:18;;;;;;;43.38;29.83;;;;;;;3.52;86.06;102052.50;684712;28;1389;-76
2022/03/25 00:44:41;;;;;;;40.88;28.55;;;;;;;3.50;84.29;102079.09;683778;28;1446;-76
2022/03/25 00:45:03;;;;;;;40.80;28.17;;;;;;;3.61;84.24;102046.88;684035;28;1418;-76
2022/03/25 00:45:25;;;;;;;39.88;28.55;;;;;;;3.63;84.44;102049.53;684600;28;1584;-76
2022/03/25 00:45:48;;;;;;;39.60;27.63;;;;;;;3.62;86.00;102066.75;683086;28;5374;-76
2022/03/25 00:46:12;;;;;;;41.42;28.55;;;;;;;3.64;85.80;102048.72;685254;28;2027;-76
2022/03/25 00:46:33;;;;;;;40.78;28.58;;;;;;;3.70;84.98;102042.13;683057;28;1562;-77
2022/03/25 00:47:02;;;;;;;41.53;28.60;;;;;;;3.74;84.45;102054.38;682852;28;1631;-76
2022/03/25 00:47:28;;;;;;;39.15;27.42;;;;;;;3.79;83.83;102056.28;686091;28;1245;-76
2022/03/25 00:47:49;;;;;;;38.97;27.45;;;;;;;3.81;84.03;102063.31;684482;28;1488;-76
2022/03/25 00:48:19;;;;;;;38.97;27.45;;;;;;;3.85;83.47;102072.06;683087;28;1238;-76
2022/03/25 00:48:42;;;;;;;40.92;28.58;;;;;;;3.80;83.81;102042.56;681338;28;1454;-76
2022/03/25 00:49:26;;;;;;;39.72;28.27;;;;;;;3.79;84.54;102048.53;677365;28;5056;-76
2022/03/25 00:49:53;;;;;;;40.58;28.67;;;;;;;3.72;83.53;102035.34;684959;28;1574;-76
2022/03/25 00:50:16;;;;;;;40.03;28.10;;;;;;;3.78;83.44;102059.69;682826;28;1460;-76
2022/03/25 00:50:39;;;;;;;37.67;27.00;;;;;;;3.78;84.75;102064.84;684324;28;1235;-76
2022/03/25 00:50:59;;;;;;;39.08;27.77;;;;;;;3.70;85.94;102077.47;687951;28;1658;-76
2022/03/25 00:51:20;;;;;;;39.42;27.98;;;;;;;3.62;86.85;102048.66;686532;28;1682;-76
2022/03/25 00:51:42;;;;;;;40.67;27.65;;;;;;;3.55;86.25;102039.72;685875;28;1638;-77
2022/03/25 00:52:03;;;;;;;41.17;28.00;;;;;;;3.49;87.70;102044.63;678213;28;4292;-76
2022/03/25 00:52:24;;;;;;;41.13;28.95;;;;;;;3.43;87.60;102054.66;680763;28;1392;-76
2022/03/25 00:52:48;;;;;;;42.90;29.75;;;;;;;3.36;87.91;102048.31;687956;28;1768;-76
2022/03/25 00:53:08;;;;;;;42.50;28.83;;;;;;;3.29;88.24;102069.53;690326;28;1411;-77
2022/03/25 00:53:29;;;;;;;43.22;29.77;;;;;;;3.27;88.44;102065.09;688082;28;1149;-76
2022/03/25 00:53:50;;;;;;;44.53;30.58;;;;;;;3.22;88.37;102037.31;684986;28;3875;-76
2022/03/25 00:54:10;;;;;;;42.13;29.35;;;;;;;3.18;88.27;102070.72;684220;28;1544;-76
2022/03/25 00:54:32;;;;;;;40.78;28.48;;;;;;;3.11;89.06;102059.19;681863;28;1615;-76
2022/03/25 00:54:53;;;;;;;42.37;29.07;;;;;;;3.14;89.27;102048.13;685171;28;4297;-76
2022/03/25 00:55:14;;;;;;;43.53;29.90;;;;;;;3.09;89.56;102071.16;684516;28;1536;-76
2022/03/25 00:55:35;;;;;;;43.17;29.42;;;;;;;3.18;88.55;102073.28;684312;28;1202;-76
2022/03/25 00:55:56;;;;;;;39.17;27.98;;;;;;;3.28;87.84;102059.09;682260;28;1281;-77
2022/03/25 00:56:17;;;;;;;39.63;28.45;;;;;;;3.31;87.75;102065.31;678696;28;1470;-76
2022/03/25 00:56:38;;;;;;;40.83;29.65;;;;;;;3.29;89.15;102043.66;674746;29;1312;-76
2022/03/25 00:56:58;;;;;;;42.35;29.42;;;;;;;3.27;89.25;102047.00;676842;29;1261;-76
2022/03/25 00:57:25;;;;;;;44.03;30.30;;;;;;;3.24;87.58;102077.06;676702;29;1147;-77
2022/03/25 00:57:49;;;;;;;38.72;27.80;;;;;;;3.33;87.79;102044.72;677987;28;4311;-76
2022/03/25 00:58:10;;;;;;;39.03;27.73;;;;;;;3.39;87.65;102048.47;684807;28;1180;-76
2022/03/25 00:58:32;;;;;;;38.33;27.50;;;;;;;3.44;87.35;102048.69;683869;28;1662;-76
2022/03/25 00:58:53;;;;;;;38.47;26.95;;;;;;;3.47;86.99;102056.56;688307;28;1341;-76
2022/03/25 00:59:16;;;;;;;39.53;27.05;;;;;;;3.56;84.05;102079.41;686750;28;1428;-76
2022/03/25 00:59:39;;;;;;;38.45;27.45;;;;;;;3.58;84.35;102075.19;684513;28;1397;-76
2022/03/25 01:00:05;;;;;;;40.05;28.38;;;;;;;3.53;85.18;102050.78;679736;28;1923;-76
2022/03/25 01:00:30;;;;;;;41.72;29.05;;;;;;;3.48;85.02;102070.41;682032;28;1198;-76
2022/03/25 01:00:51;;;;;;;39.58;28.58;;;;;;;3.53;84.03;102066.31;687626;28;4323;-76
2022/03/25 01:01:11;;;;;;;40.53;27.83;;;;;;;3.60;84.47;102062.31;685124;28;1394;-76
2022/03/25 01:01:32;;;;;;;38.30;27.20;;;;;;;3.57;84.77;102050.13;684974;28;1171;-77
2022/03/25 01:01:53;;;;;;;40.13;28.35;;;;;;;3.56;85.73;102043.22;679451;29;1274;-76
2022/03/25 01:02:14;;;;;;;41.97;28.88;;;;;;;3.51;86.01;102049.84;682816;28;1408;-76
2022/03/25 01:02:35;;;;;;;43.00;29.10;;;;;;;3.49;87.10;102051.47;684672;28;1685;-76
2022/03/25 01:02:59;;;;;;;40.55;29.02;;;;;;;3.48;86.62;102058.34;686467;28;1363;-76
2022/03/25 01:03:21;;;;;;;41.05;29.38;;;;;;;3.48;86.14;102047.13;681572;28;1296;-77
2022/03/25 01:03:44;;;;;;;41.15;28.10;;;;;;;3.48;86.24;102049.72;680238;28;1360;-76
2022/03/25 01:04:05;;;;;;;39.60;27.92;;;;;;;3.48;86.29;102050.59;679095;28;4278;-76
2022/03/25 01:04:25;;;;;;;37.67;27.17;;;;;;;3.50;86.63;102048.97;681943;28;1405;-76
2022/03/25 01:04:46;;;;;;;39.90;27.97;;;;;;;3.54;86.46;102055.16;684077;28;1235;-76
2022/03/25 01:05:10;;;;;;;40.60;27.85;;;;;;;3.54;86.08;102050.88;682911;28;1343;-77
2022/03/25 01:05:32;;;;;;;37.28;27.23;;;;;;;3.56;86.14;102048.38;681655;28;1369;-76
2022/03/25 01:05:52;;;;;;;40.50;28.02;;;;;;;3.58;85.21;102052.78;683679;28;1337;-76
2022/03/25 01:06:13;;;;;;;39.90;27.73;;;;;;;3.54;86.70;102060.34;678579;28;1201;-76
2022/03/25 01:06:35;;;;;;;40.45;28.80;;;;;;;3.51;87.66;102052.44;684974;28;1053;-76
2022/03/25 01:06:56;;;;;;;40.58;29.00;;;;;;;3.47;88.31;102046.22;685495;28;4318;-76
2022/03/25 01:07:17;;;;;;;40.43;28.63;;;;;;;3.45;88.38;102054.72;685538;28;1177;-76
2022/03/25 01:07:38;;;;;;;40.08;28.70;;;;;;;3.40;87.69;102046.75;682037;28;1291;-76
2022/03/25 01:07:58;;;;;;;40.13;28.60;;;;;;;3.33;88.41;102047.28;680879;28;1144;-76
2022/03/25 01:08:20;;;;;;;41.70;28.98;;;;;;;3.31;88.31;102052.41;677709;29;1394;-76
2022/03/25 01:08:40;;;;;;;41.05;28.20;;;;;;;3.32;87.92;102048.97;675971;28;1379;-76
2022/03/25 01:09:06;;;;;;;41.17;28.67;;;;;;;3.36;88.25;102050.91;682513;28;1402;-76
2022/03/25 01:09:34;;;;;;;42.55;29.40;;;;;;;3.31;88.56;102043.75;684706;28;1538;-76
2022/03/25 01:09:57;;;;;;;44.35;30.25;;;;;;;3.23;88.58;102044.28;683729;28;4301;-76
2022/03/25 01:10:18;;;;;;;42.65;28.63;;;;;;;3.23;88.92;102053.72;687266;28;1285;-76
2022/03/25 01:11:04;;;;;;;41.38;29.02;;;;;;;3.18;88.87;102056.06;684656;28;1434;-76
2022/03/25 01:11:28;;;;;;;42.35;29.10;;;;;;;3.18;88.68;102068.13;685482;28;2109;-76
2022/03/25 01:11:51;;;;;;;40.22;28.40;;;;;;;3.17;87.76;102035.34;689852;28;1298;-76
2022/03/25 01:12:14;;;;;;;39.70;28.17;;;;;;;3.22;87.85;102062.28;687745;28;1693;-76
2022/03/25 01:12:35;;;;;;;38.60;27.85;;;;;;;3.24;87.25;102071.91;686833;28;1454;-76
2022/03/25 01:12:56;;;;;;;37.80;27.27;;;;;;;3.30;87.40;102044.56;685293;28;4322;-76
2022/03/25 01:13:16;;;;;;;40.50;28.07;;;;;;;3.25;88.66;102044.34;681775;28;1101;-76
2022/03/25 01:13:37;;;;;;;41.40;29.25;;;;;;;3.15;88.57;102040.44;686920;28;1292;-76
2022/03/25 01:13:58;;;;;;;40.80;28.97;;;;;;;3.12;88.28;102060.97;685243;28;1192;-76
2022/03/25 01:14:21;;;;;;;40.15;28.08;;;;;;;3.11;89.06;102033.34;682820;28;1485;-76
2022/03/25 01:14:42;;;;;;;41.40;29.00;;;;;;;3.14;87.96;102043.81;678851;28;1264;-76
2022/03/25 01:15:07;;;;;;;40.15;28.35;;;;;;;3.23;87.14;102082.16;679664;28;1187;-76
2022/03/25 01:15:28;;;;;;;40.95;27.77;;;;;;;3.36;85.49;102037.09;683150;28;1624;-76
2022/03/25 01:15:48;;;;;;;44.40;27.80;;;;;;;3.40;86.26;102042.47;685545;28;4330;-76
2022/03/25 01:16:12;;;;;;;41.03;28.65;;;;;;;3.39;87.66;102039.81;687195;28;1155;-76
2022/03/25 01:16:40;;;;;;;41.60;29.33;;;;;;;3.38;87.62;102069.09;687763;28;1703;-76
2022/03/25 01:17:02;;;;;;;43.00;29.20;;;;;;;3.30;88.06;102036.81;689737;28;1635;-76
2022/03/25 01:17:27;;;;;;;42.88;29.70;;;;;;;3.26;88.17;102038.38;681472;28;1748;-76
2022/03/25 01:17:53;;;;;;;42.08;29.36;;;;;;;3.22;88.01;102055.41;682327;28;1621;-76
2022/03/25 01:18:17;;;;;;;39.92;28.55;;;;;;;3.21;87.97;102045.91;682438;28;1407;-76
2022/03/25 01:18:44;;;;;;;42.38;29.38;;;;;;;3.19;88.25;102052.69;681621;28;1286;-76
2022/03/25 01:19:08;;;;;;;42.88;29.67;;;;;;;3.13;88.30;102057.56;685035;28;5942;-76
2022/03/25 01:19:29;;;;;;;40.90;28.40;;;;;;;3.13;88.03;102031.75;683146;28;1443;-76
2022/03/25 01:19:50;;;;;;;40.80;28.55;;;;;;;3.15;87.86;102058.53;680241;28;1948;-76
2022/03/25 01:20:11;;;;;;;41.13;28.07;;;;;;;3.17;88.37;102033.66;683680;28;1378;-76
2022/03/25 01:20:32;;;;;;;40.97;28.40;;;;;;;3.22;88.59;102037.31;676661;28;1543;-76
2022/03/25 01:20:55;;;;;;;43.30;29.23;;;;;;;3.22;87.75;102047.66;678113;29;1081;-76
2022/03/25 01:21:17;;;;;;;40.25;29.20;;;;;;;3.22;87.28;102037.31;681111;28;1516;-77
2022/03/25 01:21:39;;;;;;;41.47;30.45;;;;;;;3.21;88.01;102057.94;685423;28;1014;-76
2022/03/25 01:22:05;;;;;;;40.80;28.90;;;;;;;3.20;87.23;102038.09;681631;28;4331;-76
2022/03/25 01:22:26;;;;;;;41.38;28.65;;;;;;;3.28;87.05;102043.59;681571;28;1556;-76
2022/03/25 01:22:47;;;;;;;40.10;27.63;;;;;;;3.35;86.56;102069.81;682135;28;1513;-76
2022/03/25 01:23:09;;;;;;;38.88;27.65;;;;;;;3.37;87.36;102044.03;680597;28;1514;-76
2022/03/25 01:23:30;;;;;;;41.15;28.65;;;;;;;3.33;87.67;102035.25;681990;28;1688;-77
2022/03/25 01:23:51;;;;;;;42.15;28.25;;;;;;;3.30;86.92;102040.28;682266;28;1361;-76
2022/03/25 01:24:11;;;;;;;42.25;28.95;;;;;;;3.34;88.11;102041.31;683799;28;1342;-76
2022/03/25 01:24:35;;;;;;;39.67;28.37;;;;;;;3.31;88.41;102039.47;680786;28;1304;-76
2022/03/25 01:24:56;;;;;;;40.63;28.52;;;;;;;3.35;87.30;102040.47;681536;28;4360;-76
2022/03/25 01:25:17;;;;;;;40.33;28.85;;;;;;;3.35;86.67;102074.09;682896;28;1394;-76
2022/03/25 01:25:38;;;;;;;40.72;29.54;;;;;;;3.34;87.24;102039.63;682796;28;1343;-76
2022/03/25 01:25:58;;;;;;;40.60;28.77;;;;;;;3.31;88.32;102036.91;684452;28;1193;-76
2022/03/25 01:26:19;;;;;;;42.03;28.73;;;;;;;3.23;89.39;102033.94;687500;28;1347;-76
2022/03/25 01:26:43;;;;;;;42.22;29.55;;;;;;;3.14;89.15;102063.63;684730;28;1362;-76
2022/03/25 01:27:04;;;;;;;42.30;29.92;;;;;;;3.10;87.96;102061.69;683697;28;1571;-76
2022/03/25 01:27:25;;;;;;;42.13;29.60;;;;;;;3.11;86.90;102037.66;685743;28;1329;-77
2022/03/25 01:27:49;;;;;;;39.10;27.63;;;;;;;3.11;88.10;102042.81;681241;28;4333;-76
2022/03/25 01:28:10;;;;;;;40.75;28.13;;;;;;;3.06;88.26;102060.69;678953;28;1272;-76
2022/03/25 01:28:34;;;;;;;39.20;28.55;;;;;;;3.12;88.62;102044.59;680127;28;1382;-76
2022/03/25 01:28:54;;;;;;;40.53;28.55;;;;;;;3.11;89.06;102064.34;682389;28;1296;-76
2022/03/25 01:29:15;;;;;;;40.30;28.70;;;;;;;3.09;89.39;102054.75;681940;28;1380;-76
2022/03/25 01:29:37;;;;;;;43.47;29.50;;;;;;;3.02;89.76;102064.81;687435;28;1482;-76
2022/03/25 01:29:58;;;;;;;41.00;28.40;;;;;;;3.01;89.64;102067.31;684749;28;1170;-76
2022/03/25 01:30:19;;;;;;;42.10;28.40;;;;;;;3.06;89.13;102034.84;685080;28;1297;-76
2022/03/25 01:30:40;;;;;;;39.97;28.15;;;;;;;3.02;89.12;102038.97;682649;28;1335;-76
2022/03/25 01:31:06;;;;;;;40.17;28.17;;;;;;;3.00;90.18;102037.13;680653;28;4337;-76
2022/03/25 01:31:29;;;;;;;45.90;29.33;;;;;;;2.96;90.56;102043.81;682682;28;1239;-76
2022/03/25 01:31:50;;;;;;;45.80;29.53;;;;;;;2.92;90.70;102059.97;684257;28;1451;-76
2022/03/25 01:32:16;;;;;;;42.28;28.73;;;;;;;2.88;90.79;102065.81;684773;28;1064;-76
2022/03/25 01:32:40;;;;;;;43.28;30.25;;;;;;;2.90;90.02;102040.97;686820;28;1325;-76
2022/03/25 01:33:02;;;;;;;41.55;29.08;;;;;;;2.96;89.42;102068.78;685079;28;1406;-76
2022/03/25 01:33:23;;;;;;;44.90;29.15;;;;;;;2.99;88.60;102032.75;682260;28;1388;-76
2022/03/25 01:33:43;;;;;;;41.00;27.85;;;;;;;3.06;87.13;102060.69;681762;28;1216;-76
2022/03/25 01:34:06;;;;;;;39.70;28.33;;;;;;;3.13;86.56;102039.50;687068;28;4320;-76
2022/03/25 01:34:32;;;;;;;40.00;28.45;;;;;;;3.15;86.68;102044.72;687606;28;1763;-76
2022/03/25 01:34:55;;;;;;;41.38;28.65;;;;;;;3.12;88.24;102054.94;689230;28;1430;-76
2022/03/25 01:35:24;;;;;;;44.17;29.27;;;;;;;3.03;89.08;102051.09;689902;28;1116;-76
2022/03/25 01:35:45;;;;;;;43.20;29.48;;;;;;;2.97;90.13;102035.28;684058;28;1207;-76
2022/03/25 01:36:09;;;;;;;42.72;30.10;;;;;;;2.91;90.41;102060.81;682676;28;1441;-76
2022/03/25 01:36:33;;;;;;;42.95;30.45;;;;;;;2.89;90.50;102039.19;682121;28;1597;-76
2022/03/25 01:37:04;;;;;;;44.65;30.00;;;;;;;2.85;90.07;102040.75;680535;28;4409;-76
2022/03/25 01:37:25;;;;;;;41.25;28.60;;;;;;;2.89;89.85;102065.91;681509;28;1687;-76
2022/03/25 01:37:46;;;;;;;42.17;28.65;;;;;;;2.89;89.72;102050.41;683642;28;1269;-76
2022/03/25 01:38:06;;;;;;;43.40;29.58;;;;;;;2.96;89.41;102043.81;682676;28;1425;-76
2022/03/25 01:38:27;;;;;;;40.17;28.67;;;;;;;2.99;88.89;102033.66;685977;28;1418;-76
2022/03/25 01:38:47;;;;;;;39.17;28.42;;;;;;;3.03;87.95;102053.66;689004;28;1399;-76
2022/03/25 01:39:17;;;;;;;40.40;28.20;;;;;;;3.13;87.87;102033.41;685725;28;1426;-76
2022/03/25 01:39:38;;;;;;;39.78;28.25;;;;;;;3.04;88.71;102036.47;682431;28;1377;-76
2022/03/25 01:39:59;;;;;;;40.00;29.52;;;;;;;3.00;89.31;102037.13;680840;28;4346;-76
2022/03/25 01:40:19;;;;;;;40.25;29.45;;;;;;;2.95;89.40;102028.25;684478;28;1544;-76
2022/03/25 01:40:42;;;;;;;41.47;29.10;;;;;;;2.87;90.75;102059.78;684947;28;1150;-76
2022/03/25 01:41:04;;;;;;;41.08;29.52;;;;;;;2.83;90.48;102065.59;683093;28;1258;-76
2022/03/25 01:41:26;;;;;;;42.08;29.02;;;;;;;2.85;90.34;102030.41;682329;28;1829;-76
2022/03/25 01:41:48;;;;;;;42.85;30.05;;;;;;;2.86;90.41;102058.00;686131;28;1570;-76
2022/03/25 01:42:10;;;;;;;41.85;29.63;;;;;;;2.81;90.41;102027.59;686859;28;1179;-76
2022/03/25 01:42:33;;;;;;;42.40;29.35;;;;;;;2.86;90.05;102032.16;685236;28;1381;-76
2022/03/25 01:42:56;;;;;;;41.22;29.40;;;;;;;2.87;89.35;102053.72;684442;28;4403;-76
2022/03/25 01:43:17;;;;;;;40.55;29.30;;;;;;;2.95;89.62;102062.75;684230;28;1516;-76
2022/03/25 01:43:38;;;;;;;43.13;29.77;;;;;;;2.98;89.63;102031.88;688158;28;1346;-76
2022/03/25 01:44:01;;;;;;;42.53;29.40;;;;;;;3.08;89.02;102029.75;687889;28;1427;-76
2022/03/25 01:44:26;;;;;;;42.03;29.45;;;;;;;3.14;88.13;102069.66;688313;28;1296;-76
2022/03/25 01:44:50;;;;;;;41.83;29.05;;;;;;;3.17;88.60;102025.91;684036;28;1311;-76
2022/03/25 01:45:13;;;;;;;40.05;28.48;;;;;;;3.17;88.52;102048.25;682587;28;1665;-76